Latest Weather Observations for Yulara

IDD60801

Issued at 11:35 am CST Sunday 31 August 2014 (issued every 30 minutes, with the page automatically refreshed every 10 minutes)

About weather observations | Map of weather stations | Latest weather observations for NT | Other Formats
Station Details ID: 015635 Name: YULARA AIRPORT Lat: -25.19 Lon: 130.97 Height: 492.0 m
Data from the previous 72 hours. | See also: Recent months at Yulara
Date/Time
CST
Temp
°C
App
Temp
°C
Dew
Point
Rel
Hum
%
Delta-T
°C
Wind Press
QNH
hPa
Press
MSL
hPa
Rain
since 9 am
mm
Dir
 
Spd
km/h
Gust
km/h
Spd
kts
Gust
kts
31/11:30am 26.2 20.7 -5.4 12 13.6 NNW 15 24 8 13 1019.1 1018.3 0.0
31/11:00am 24.4 19.0 -4.8 14 12.5 NW 15 20 8 11 1019.4 1018.6 0.0
31/10:30am 23.0 18.0 -4.1 16 11.6 NNW 13 20 7 11 1019.7 1018.9 0.0
31/10:00am 21.7 17.4 -4.4 17 11.0 N 9 13 5 7 1019.8 1019.0 0.0
31/09:30am 19.3 16.8 -4.2 20 9.7 CALM 0 6 0 3 1020.0 1019.3 0.0
31/09:00am 16.7 13.9 -3.4 25 8.2 SE 2 6 1 3 1020.0 1019.3 0.0
31/08:30am 13.2 10.8 -3.5 31 6.6 CALM 0 0 0 0 1019.9 1019.1 0.0
31/08:00am 9.3 5.7 -3.9 39 5.0 S 6 7 3 4 1019.7 1018.9 0.0
31/07:30am 6.2 2.3 -4.5 46 3.8 S 7 9 4 5 1019.5 1018.7 0.0
31/07:00am 5.4 1.4 -5.6 45 3.8 S 7 11 4 6 1019.2 1018.4 0.0
31/06:30am 6.1 1.8 -5.2 44 3.9 S 9 13 5 7 1018.8 1018.1 0.0
31/06:00am 5.9 1.6 -5.1 45 3.8 S 9 13 5 7 1018.6 1017.9 0.0
31/05:30am 7.0 3.1 -5.0 42 4.3 S 7 13 4 7 1018.4 1017.7 0.0
31/05:00am 7.3 2.6 -5.1 41 4.4 S 11 15 6 8 1018.2 1017.4 0.0
31/04:30am 6.1 2.8 -4.6 46 3.8 S 4 9 2 5 1018.1 1017.3 0.0
31/04:00am 6.3 3.7 -4.7 45 3.9 CALM 0 0 0 0 1017.9 1017.1 0.0
31/03:30am 5.9 3.3 -4.5 47 3.7 CALM 0 0 0 0 1017.9 1017.1 0.0
31/03:00am 5.5 2.9 -5.2 46 3.7 SSW 0 0 0 0 1018.1 1017.3 0.0
31/02:30am 6.3 3.7 -4.7 45 3.9 CALM 0 0 0 0 1018.3 1017.6 0.0
31/02:00am 6.7 4.1 -5.0 43 4.1 CALM 0 0 0 0 1018.5 1017.8 0.0
31/01:30am 6.9 4.3 -4.8 43 4.2 S 0 0 0 0 1018.6 1017.9 0.0
31/01:00am 8.3 5.7 -4.5 40 4.7 CALM 0 0 0 0 1019.1 1018.3 0.0
31/12:30am 8.6 6.1 -4.2 40 4.7 CALM 0 0 0 0 1019.1 1018.3 0.0
31/12:00am 9.4 6.8 -4.5 37 5.1 E 0 0 0 0 1019.3 1018.5 0.0
 
Date/Time
CST
Temp
°C
App
Temp
°C
Dew
Point
Rel
Hum
%
Delta-T
°C
Wind Press
QNH
hPa
Press
MSL
hPa
Rain
since 9 am
mm
Dir
 
Spd
km/h
Gust
km/h
Spd
kts
Gust
kts
30/11:30pm 9.8 7.2 -4.5 36 5.3 CALM 0 7 0 4 1019.4 1018.6 0.0
30/11:00pm 10.4 6.7 -4.4 35 5.6 ESE 6 7 3 4 1019.5 1018.7 0.0
30/10:30pm 10.7 7.8 -4.5 34 5.7 SSE 2 7 1 4 1019.7 1018.9 0.0
30/10:00pm 10.7 7.0 -4.9 33 5.8 SSE 6 6 3 3 1019.7 1018.9 0.0
30/09:30pm 12.7 8.4 -4.4 30 6.6 SSW 9 9 5 5 1019.8 1019.0 0.0
30/09:00pm 13.2 10.7 -4.0 30 6.7 CALM 0 0 0 0 1019.4 1018.6 0.0
30/08:30pm 17.1 13.4 -4.2 23 8.6 N 6 11 3 6 1019.3 1018.5 0.0
30/08:00pm 15.7 13.1 -4.8 24 8.1 CALM 0 0 0 0 1018.8 1018.1 0.0
30/07:30pm 17.8 15.2 -4.8 21 9.1 CALM 0 0 0 0 1018.7 1018.0 0.0
30/07:00pm 21.0 18.4 -5.0 17 10.8 CALM 0 0 0 0 1018.5 1017.8 0.0
30/06:30pm 25.4 21.9 -6.0 12 13.3 ESE 4 7 2 4 1018.1 1017.3 0.0
30/06:00pm 26.1 22.6 -6.6 11 13.8 ESE 4 11 2 6 1018.1 1017.3 0.0
30/05:30pm 26.7 22.6 -6.2 11 14.0 E 7 15 4 8 1018.0 1017.2 0.0
30/05:00pm 26.9 22.1 -6.0 11 14.1 N 11 20 6 11 1017.7 1016.9 0.0
30/04:30pm 27.3 23.9 -5.7 11 14.3 NW 4 17 2 9 1017.7 1016.9 0.0
30/04:00pm 26.9 23.1 -6.0 11 14.1 NE 6 11 3 6 1017.9 1017.1 0.0
30/03:30pm 27.2 22.8 -5.8 11 14.2 NE 9 15 5 8 1017.9 1017.1 0.0
30/03:00pm 26.8 22.1 -4.9 12 13.8 WNW 11 19 6 10 1018.2 1017.4 0.0
30/02:30pm 26.8 23.6 -3.9 13 13.7 E 4 13 2 7 1018.4 1017.7 0.0
30/02:00pm 25.8 21.9 -4.7 13 13.3 SE 7 15 4 8 1019.2 1018.4 0.0
30/01:30pm 26.4 21.9 -3.2 14 13.3 NNE 11 20 6 11 1019.8 1019.0 0.0
30/01:00pm 25.9 21.8 -2.7 15 12.9 N 9 17 5 9 1020.3 1019.6 0.0
30/12:30pm 26.0 21.7 -1.7 16 12.7 N 11 22 6 12 1020.8 1020.1 0.0
30/12:00pm 24.9 21.2 -2.6 16 12.3 NNE 7 13 4 7 1021.5 1020.7 0.0
30/11:30am 23.5 18.7 -2.2 18 11.5 N 13 20 7 11 1022.1 1021.4 0.0
30/11:00am 22.2 17.1 -1.8 20 10.7 NE 15 22 8 12 1022.7 1022.0 0.0
30/10:30am 20.9 16.7 -1.0 23 9.8 NE 11 19 6 10 1023.3 1022.5 0.0
30/10:00am 19.9 15.7 -1.2 24 9.3 ENE 11 20 6 11 1023.3 1022.5 0.0
30/09:30am 18.0 13.4 -1.3 27 8.3 E 13 17 7 9 1023.3 1022.5 0.0
30/09:00am 16.0 12.2 -1.1 31 7.3 E 9 13 5 7 1023.5 1022.7 0.0
30/08:30am 13.0 9.1 -1.3 37 5.9 SSE 9 13 5 7 1023.5 1022.7 0.0
30/08:00am 9.4 5.9 -1.0 48 4.2 S 7 9 4 5 1023.1 1022.4 0.0
30/07:30am 6.2 2.1 -2.7 53 3.3 SSE 9 11 5 6 1022.7 1022.0 0.0
30/07:00am 6.0 1.5 -3.1 52 3.3 S 11 17 6 9 1022.6 1021.9 0.0
30/06:30am 5.4 1.6 -3.6 52 3.2 S 7 9 4 5 1022.5 1021.8 0.0
30/06:00am 6.1 1.2 -3.5 50 3.5 S 13 17 7 9 1022.3 1021.6 0.0
30/05:30am 5.7 1.5 -3.9 50 3.4 S 9 11 5 6 1022.1 1021.4 0.0
30/05:00am 6.0 1.8 -3.6 50 3.5 S 9 13 5 7 1022.0 1021.3 0.0
30/04:30am 6.0 2.4 -3.9 49 3.6 S 6 11 3 6 1021.9 1021.2 0.0
30/04:00am 6.0 2.2 -3.4 51 3.4 S 7 9 4 5 1021.8 1021.1 0.0
30/03:30am 6.5 2.8 -3.2 50 3.6 S 7 9 4 5 1021.9 1021.2 0.0
30/03:00am 6.8 3.1 -2.9 50 3.6 S 7 9 4 5 1021.9 1021.2 0.0
30/02:30am 7.0 3.5 -3.0 49 3.7 SSE 6 7 3 4 1021.9 1021.2 0.0
30/02:00am 8.9 5.2 -2.7 44 4.5 SSE 7 9 4 5 1022.0 1021.3 0.0
30/01:30am 8.8 6.4 -2.8 44 4.4 CALM 0 4 0 2 1022.0 1021.3 0.0
30/01:00am 8.6 4.9 -2.9 44 4.4 SE 7 9 4 5 1022.1 1021.4 0.0
30/12:30am 9.5 5.9 -2.4 43 4.6 SE 7 7 4 4 1022.0 1021.3 0.0
30/12:00am 9.7 5.9 -3.6 39 5.0 SE 7 11 4 6 1022.1 1021.4 0.0
 
Date/Time
CST
Temp
°C
App
Temp
°C
Dew
Point
Rel
Hum
%
Delta-T
°C
Wind Press
QNH
hPa
Press
MSL
hPa
Rain
since 9 am
mm
Dir
 
Spd
km/h
Gust
km/h
Spd
kts
Gust
kts
29/11:30pm 9.8 5.5 -4.5 36 5.3 SE 9 9 5 5 1022.1 1021.4 0.0
29/11:00pm 11.5 7.7 -3.4 35 5.8 ESE 7 9 4 5 1022.0 1021.3 0.0
29/10:30pm 11.5 7.6 -4.2 33 6.0 SE 7 9 4 5 1022.1 1021.4 0.0
29/10:00pm 14.2 10.0 -4.0 28 7.2 SE 9 11 5 6 1022.1 1021.4 0.0
29/09:30pm 16.9 12.3 -4.3 23 8.5 ESE 11 13 6 7 1021.9 1021.2 0.0
29/09:00pm 13.4 9.2 -4.2 29 6.8 E 9 13 5 7 1021.6 1020.8 0.0
29/08:30pm 15.3 12.5 -3.6 27 7.6 ESE 2 7 1 4 1021.6 1020.8 0.0
29/08:00pm 15.5 11.3 -3.9 26 7.8 ESE 9 9 5 5 1021.3 1020.5 0.0
29/07:30pm 17.3 14.8 -4.0 23 8.7 CALM 0 0 0 0 1021.1 1020.3 0.0
29/07:00pm 19.2 16.6 -5.0 19 9.9 CALM 0 7 0 4 1020.5 1019.8 0.0
29/06:30pm 23.3 19.4 -4.8 15 11.9 ENE 7 11 4 6 1020.2 1019.5 0.0
29/06:00pm 24.5 20.2 -4.7 14 12.5 ENE 9 15 5 8 1020.1 1019.4 0.0
29/05:30pm 25.4 22.8 -5.0 13 13.1 CALM 0 6 0 3 1019.9 1019.1 0.0
29/05:00pm 25.4 19.8 -6.0 12 13.3 ENE 15 20 8 11 1019.8 1019.0 0.0
29/04:30pm 25.4 21.4 -6.0 12 13.3 NNE 7 13 4 7 1019.9 1019.1 0.0
29/04:00pm 25.8 20.6 -5.7 12 13.5 ESE 13 19 7 10 1020.1 1019.4 0.0
29/03:30pm 24.7 20.9 -5.5 13 12.8 ESE 6 13 3 7 1020.2 1019.5 0.0
29/03:00pm 25.0 20.8 -4.3 14 12.7 NNE 9 20 5 11 1020.6 1019.9 0.0
29/02:30pm 24.8 21.1 -4.5 14 12.7 N 6 15 3 8 1020.9 1020.2 0.0
29/02:00pm 24.5 19.3 -2.9 16 12.2 NE 15 20 8 11 1021.5 1020.7 0.0
29/01:30pm 24.8 19.3 -1.9 17 12.1 ENE 17 24 9 13 1022.1 1021.4 0.0
29/01:00pm 24.0 18.2 -1.8 18 11.7 N 19 26 10 14 1022.6 1021.9 0.0
29/12:30pm 23.1 18.8 -1.8 19 11.1 NNE 11 22 6 12 1023.4 1022.6 0.0
29/12:00pm 22.4 17.3 -1.6 20 10.7 ENE 15 24 8 13 1024.1 1023.4 0.0
29/11:30am 21.8 16.9 -0.8 22 10.2 NNE 15 20 8 11 1024.7 1024.0 0.0
29/11:00am 21.7 16.0 0.3 24 9.9 ENE 20 30 11 16 1025.1 1024.4 0.0
29/10:30am 21.1 15.5 0.9 26 9.4 ENE 20 30 11 16 1025.6 1024.9 0.0
29/10:00am 19.6 13.9 0.6 28 8.7 ENE 20 28 11 15 1025.7 1025.0 0.0
29/09:30am 18.5 13.4 0.6 30 8.1 ENE 17 22 9 12 1025.7 1025.0 0.0
29/09:00am 16.2 11.0 -0.1 33 7.1 E 17 20 9 11 1025.5 1024.8 0.0
29/08:30am 13.5 8.9 -0.9 37 6.0 E 13 19 7 10 1025.3 1024.7 0.0
29/08:00am 10.9 6.3 -1.2 43 4.9 ESE 13 19 7 10 1025.0 1024.3 0.0
29/07:30am 7.8 4.2 -2.0 50 3.8 SE 7 9 4 5 1024.9 1024.2 0.0
29/07:00am 5.1 1.3 -3.9 52 3.2 SSE 7 9 4 5 1024.8 1024.1 0.0
29/06:30am 5.1 0.8 -4.7 49 3.4 SSE 9 11 5 6 1024.6 1023.9 0.0
29/06:00am 6.3 2.0 -4.4 46 3.8 SSE 9 11 5 6 1024.4 1023.7 0.0
29/05:30am 7.3 3.1 -4.1 44 4.1 S 9 11 5 6 1024.3 1023.6 0.0
29/05:00am 7.7 3.4 -4.4 42 4.4 SSE 9 11 5 6 1024.0 1023.3 0.0
29/04:30am 8.7 4.0 -4.8 38 4.9 SSE 11 15 6 8 1023.7 1023.0 0.0
29/04:00am 9.4 4.7 -4.9 36 5.2 SE 11 15 6 8 1023.7 1023.0 0.0
29/03:30am 9.6 4.5 -5.1 35 5.3 SE 13 15 7 8 1023.6 1022.9 0.0
29/03:00am 9.8 4.7 -5.3 34 5.5 SE 13 15 7 8 1023.5 1022.7 0.0
29/02:30am 10.1 5.0 -5.4 33 5.6 SE 13 13 7 7 1023.6 1022.9 0.0
29/02:00am 10.2 5.8 -5.7 32 5.8 SE 9 11 5 6 1023.7 1023.0 0.0
29/01:30am 11.0 6.6 -5.5 31 6.0 ESE 9 11 5 6 1023.6 1022.9 0.0
29/01:00am 11.7 7.3 -5.7 29 6.4 ESE 9 11 5 6 1023.7 1023.0 0.0
29/12:30am 11.2 7.1 -6.2 29 6.3 SE 7 9 4 5 1023.8 1023.1 0.0
29/12:00am 13.0 8.6 -6.0 26 7.1 ESE 9 13 5 7 1023.8 1023.1 0.0
 
Date/Time
CST
Temp
°C
App
Temp
°C
Dew
Point
Rel
Hum
%
Delta-T
°C
Wind Press
QNH
hPa
Press
MSL
hPa
Rain
since 9 am
mm
Dir
 
Spd
km/h
Gust
km/h
Spd
kts
Gust
kts
28/11:30pm 14.4 9.2 -5.9 24 7.7 ESE 13 17 7 9 1023.7 1023.0 0.0
28/11:00pm 14.6 9.4 -6.3 23 7.9 ESE 13 15 7 8 1023.6 1022.9 0.0
28/10:30pm 14.8 9.6 -6.1 23 7.9 ESE 13 17 7 9 1023.5 1022.7 0.0
28/10:00pm 15.6 10.4 -6.6 21 8.4 ESE 13 17 7 9 1023.4 1022.6 0.0
28/09:30pm 16.4 10.7 -7.3 19 8.9 E 15 19 8 10 1023.1 1022.4 0.0
28/09:00pm 16.1 11.1 -8.2 18 8.9 ESE 11 15 6 8 1023.1 1022.4 0.0
28/08:30pm 17.5 12.1 -8.6 16 9.7 ESE 13 15 7 8 1022.8 1022.1 0.0
28/08:00pm 17.9 13.3 -8.2 16 9.8 ESE 9 13 5 7 1022.5 1021.8 0.0
28/07:30pm 19.3 14.6 -8.8 14 10.6 ESE 9 13 5 7 1022.2 1021.5 0.0
28/07:00pm 20.9 15.8 -9.5 12 11.5 E 11 13 6 7 1022.0 1021.3 0.0
28/06:30pm 22.5 17.4 -9.4 11 12.3 E 11 17 6 9 1021.8 1021.1 0.0
28/06:00pm 23.8 18.3 -9.6 10 13.0 E 13 17 7 9 1021.6 1020.8 0.0
28/05:30pm 24.2 18.3 -9.3 10 13.1 E 15 20 8 11 1021.7 1020.9 0.0
28/05:00pm 24.2 18.0 -9.3 10 13.2 E 17 24 9 13 1021.7 1020.9 0.0
28/04:30pm 24.6 18.8 -9.0 10 13.3 E 15 24 8 13 1021.7 1020.9 0.0
28/04:00pm 24.5 19.1 -7.9 11 13.1 E 13 24 7 13 1021.7 1020.9 0.0
28/03:30pm 24.5 18.5 -6.7 12 12.9 ENE 17 26 9 14 1021.9 1021.2 0.0
28/03:00pm 24.5 17.8 -7.9 11 13.1 ENE 20 33 11 18 1022.1 1021.4 0.0
28/02:30pm 24.0 19.5 -7.1 12 12.7 NE 9 19 5 10 1022.4 1021.7 0.0
28/02:00pm 23.6 17.1 -7.4 12 12.6 ENE 19 30 10 16 1022.8 1022.1 0.0
28/01:30pm 23.5 16.9 -6.5 13 12.3 ENE 20 30 11 16 1023.4 1022.6 0.0
28/01:00pm 23.5 16.4 -4.6 15 12.0 E 24 35 13 19 1023.9 1023.2 0.0
28/12:30pm 22.2 16.0 -4.8 16 11.3 E 19 33 10 18 1024.4 1023.7 0.0
28/12:00pm 22.5 16.6 -5.4 15 11.6 E 17 32 9 17 1024.8 1024.1 0.0

Other Formats:

Comma delimited format used in spreadsheet applications
http://www.bom.gov.au/fwo/IDD60801/IDD60801.94462.axf

JavaScript Object Notation format (JSON) in row-major order
http://www.bom.gov.au/fwo/IDD60801/IDD60801.94462.json